Portada
METAR-TAF:

METAR-TAF

Aeroports :

Évreux, França

latitud: 49-01N, longitud: 001-13E, altitud: 141 m

Observació

L'informe es va fer fa 12 minuts, a les 16:30 UTC
Vent 6 kt del Nord/Nord-Est, variant entre Oest/Nord-Oest i Nord-Est
Temperatura 9°C
Humitat 43%
Pressió 1027 hPa
Visibilitat 10 km o més
sense núvols per sota de 1500 mi sense presència de cumulonimbus.

METAR: LFOE 151630Z AUTO 03006KT 290V050 CAVOK 09/M03 Q1027 TEMPO 4000 SHRA

Hora: 18:42 (16:42 UTC)

Pronòstic

L'informe es va fer fa 2 hores i 42 minuts, a les 14:00 UTC
Pronòstic vàlid del 15 a les 15 UTC al 16 a les 15 UTC
Vent 10 kt del Nord-Est
Visibilitat 10 km o més
sense núvols per sota de 1500 mi sense presència de cumulonimbus.
Probabilitat 40% :
Temporalment
l' 15 a les 15 UTC al 15 a les 18 UTC
Visibilitat: 4000 m
xàfecs de pluja

TAF: LFOE 151400Z 1515/1615 05010KT CAVOK PROB40 TEMPO 1515/1518 4000 SHRA

Observacions i pronòstics meteorològics de més de 4000 aeroports (METAR i TAF).

Les estacions disponibles són els punts grocs i vermells al mapa.

Posi el ratolí al punt desitjat per veure el nom de l'estació.

Feu clic per veure les observacions i els pronòstics meteorològics.

Per canviar el mapa: feu clic els botons verds amb una creu de color negre per apropar; al botó verd amb un guió per allunyar la imatge; o en les fletxes verdes per a mapes adjacents.


METAR-TAF: